sensor_id;sensor_type;location;lat;lon;timestamp;pressure;altitude;pressure_sealevel;temperature;humidity
62418;BME280;48456;54.242;10.280;2023-11-19T00:00:51;100583.16;;;3.53;100.00
62418;BME280;48456;54.242;10.280;2023-11-19T00:03:19;100571.75;;;3.51;100.00
62418;BME280;48456;54.242;10.280;2023-11-19T00:05:47;100573.59;;;3.54;100.00
62418;BME280;48456;54.242;10.280;2023-11-19T00:08:14;100565.72;;;3.52;100.00
62418;BME280;48456;54.242;10.280;2023-11-19T00:10:40;100550.00;;;3.52;100.00
62418;BME280;48456;54.242;10.280;2023-11-19T00:13:07;100535.19;;;3.53;100.00
62418;BME280;48456;54.242;10.280;2023-11-19T00:15:33;100524.72;;;3.53;100.00
62418;BME280;48456;54.242;10.280;2023-11-19T00:17:59;100518.63;;;3.52;100.00
62418;BME280;48456;54.242;10.280;2023-11-19T00:20:29;100513.44;;;3.54;100.00
62418;BME280;48456;54.242;10.280;2023-11-19T00:22:55;100489.03;;;3.55;100.00
62418;BME280;48456;54.242;10.280;2023-11-19T00:25:21;100495.16;;;3.57;100.00
62418;BME280;48456;54.242;10.280;2023-11-19T00:27:49;100488.13;;;3.54;100.00
62418;BME280;48456;54.242;10.280;2023-11-19T00:30:17;100489.09;;;3.59;100.00
62418;BME280;48456;54.242;10.280;2023-11-19T00:32:43;100474.31;;;3.60;100.00
62418;BME280;48456;54.242;10.280;2023-11-19T00:35:10;100463.88;;;3.61;100.00
62418;BME280;48456;54.242;10.280;2023-11-19T00:37:36;100466.50;;;3.61;100.00
62418;BME280;48456;54.242;10.280;2023-11-19T00:40:03;100456.91;;;3.63;100.00
62418;BME280;48456;54.242;10.280;2023-11-19T00:42:32;100456.06;;;3.63;100.00
62418;BME280;48456;54.242;10.280;2023-11-19T00:44:58;100452.63;;;3.66;100.00
62418;BME280;48456;54.242;10.280;2023-11-19T00:47:24;100442.16;;;3.66;100.00
62418;BME280;48456;54.242;10.280;2023-11-19T00:49:51;100436.09;;;3.68;100.00
62418;BME280;48456;54.242;10.280;2023-11-19T00:52:18;100435.22;;;3.69;100.00
62418;BME280;48456;54.242;10.280;2023-11-19T00:54:45;100428.25;;;3.68;100.00
62418;BME280;48456;54.242;10.280;2023-11-19T00:57:11;100423.91;;;3.69;100.00
62418;BME280;48456;54.242;10.280;2023-11-19T00:59:38;100409.91;;;3.67;100.00
62418;BME280;48456;54.242;10.280;2023-11-19T01:02:04;100405.56;;;3.67;100.00
62418;BME280;48456;54.242;10.280;2023-11-19T01:04:35;100392.50;;;3.69;100.00
62418;BME280;48456;54.242;10.280;2023-11-19T01:07:02;100388.19;;;3.72;100.00
62418;BME280;48456;54.242;10.280;2023-11-19T01:09:30;100383.84;;;3.71;100.00
62418;BME280;48456;54.242;10.280;2023-11-19T01:11:58;100372.53;;;3.74;100.00
62418;BME280;48456;54.242;10.280;2023-11-19T01:14:27;100362.00;;;3.71;100.00
62418;BME280;48456;54.242;10.280;2023-11-19T01:16:53;100357.69;;;3.73;100.00
62418;BME280;48456;54.242;10.280;2023-11-19T01:19:21;100352.50;;;3.76;100.00
62418;BME280;48456;54.242;10.280;2023-11-19T01:21:48;100340.34;;;3.78;100.00
62418;BME280;48456;54.242;10.280;2023-11-19T01:24:15;100338.59;;;3.79;100.00
62418;BME280;48456;54.242;10.280;2023-11-19T01:26:43;100331.66;;;3.81;100.00
62418;BME280;48456;54.242;10.280;2023-11-19T01:29:12;100326.38;;;3.77;100.00
62418;BME280;48456;54.242;10.280;2023-11-19T01:31:41;100310.63;;;3.76;100.00
62418;BME280;48456;54.242;10.280;2023-11-19T01:34:07;100305.50;;;3.81;100.00
62418;BME280;48456;54.242;10.280;2023-11-19T01:36:34;100306.31;;;3.78;100.00
62418;BME280;48456;54.242;10.280;2023-11-19T01:39:00;100294.97;;;3.77;100.00
62418;BME280;48456;54.242;10.280;2023-11-19T01:41:27;100293.22;;;3.76;100.00
62418;BME280;48456;54.242;10.280;2023-11-19T01:43:54;100281.03;;;3.80;100.00
62418;BME280;48456;54.242;10.280;2023-11-19T01:46:20;100270.56;;;3.79;100.00
62418;BME280;48456;54.242;10.280;2023-11-19T01:48:47;100267.13;;;3.83;100.00
62418;BME280;48456;54.242;10.280;2023-11-19T01:51:13;100248.84;;;3.84;100.00
62418;BME280;48456;54.242;10.280;2023-11-19T01:53:43;100236.63;;;3.83;100.00
62418;BME280;48456;54.242;10.280;2023-11-19T01:56:09;100246.19;;;3.83;100.00
62418;BME280;48456;54.242;10.280;2023-11-19T01:58:38;100222.63;;;3.81;100.00
62418;BME280;48456;54.242;10.280;2023-11-19T02:01:05;100219.16;;;3.82;100.00
62418;BME280;48456;54.242;10.280;2023-11-19T02:03:32;100216.56;;;3.82;100.00
62418;BME280;48456;54.242;10.280;2023-11-19T02:05:59;100212.22;;;3.84;100.00
62418;BME280;48456;54.242;10.280;2023-11-19T02:08:26;100212.28;;;3.89;100.00
62418;BME280;48456;54.242;10.280;2023-11-19T02:10:53;100211.38;;;3.88;100.00
62418;BME280;48456;54.242;10.280;2023-11-19T02:13:23;100214.88;;;3.87;100.00
62418;BME280;48456;54.242;10.280;2023-11-19T02:15:51;100207.91;;;3.89;100.00
62418;BME280;48456;54.242;10.280;2023-11-19T02:18:21;100210.56;;;3.91;100.00
62418;BME280;48456;54.242;10.280;2023-11-19T02:20:49;100208.81;;;3.92;100.00
62418;BME280;48456;54.242;10.280;2023-11-19T02:23:16;100204.47;;;3.90;100.00
62418;BME280;48456;54.242;10.280;2023-11-19T02:25:46;100216.69;;;3.92;100.00
62418;BME280;48456;54.242;10.280;2023-11-19T02:28:15;100204.47;;;3.94;100.00
62418;BME280;48456;54.242;10.280;2023-11-19T02:30:42;100199.25;;;3.95;100.00
62418;BME280;48456;54.242;10.280;2023-11-19T02:33:09;100192.31;;;3.96;100.00
62418;BME280;48456;54.242;10.280;2023-11-19T02:35:35;100194.00;;;3.94;100.00
62418;BME280;48456;54.242;10.280;2023-11-19T02:38:02;100188.78;;;3.94;100.00
62418;BME280;48456;54.242;10.280;2023-11-19T02:40:32;100192.31;;;3.96;100.00
62418;BME280;48456;54.242;10.280;2023-11-19T02:42:59;100186.19;;;3.95;100.00
62418;BME280;48456;54.242;10.280;2023-11-19T02:45:26;100193.19;;;3.96;100.00
62418;BME280;48456;54.242;10.280;2023-11-19T02:47:52;100203.66;;;3.96;100.00
62418;BME280;48456;54.242;10.280;2023-11-19T02:50:19;100184.47;;;3.97;100.00
62418;BME280;48456;54.242;10.280;2023-11-19T02:52:52;100149.59;;;3.98;100.00
62418;BME280;48456;54.242;10.280;2023-11-19T02:55:19;100129.53;;;3.97;100.00
62418;BME280;48456;54.242;10.280;2023-11-19T02:57:46;100207.94;;;3.91;100.00
62418;BME280;48456;54.242;10.280;2023-11-19T03:00:18;100211.44;;;3.92;100.00
62418;BME280;48456;54.242;10.280;2023-11-19T03:02:44;100221.00;;;3.91;100.00
62418;BME280;48456;54.242;10.280;2023-11-19T03:05:16;100214.94;;;3.94;100.00
62418;BME280;48456;54.242;10.280;2023-11-19T03:07:43;100211.44;;;3.92;100.00
62418;BME280;48456;54.242;10.280;2023-11-19T03:10:12;100210.56;;;3.93;100.00
62418;BME280;48456;54.242;10.280;2023-11-19T03:12:42;100203.63;;;3.93;100.00
62418;BME280;48456;54.242;10.280;2023-11-19T03:15:09;100208.84;;;3.93;100.00
62418;BME280;48456;54.242;10.280;2023-11-19T03:17:36;100218.44;;;3.94;100.00
62418;BME280;48456;54.242;10.280;2023-11-19T03:20:05;100210.59;;;3.94;100.00
62418;BME280;48456;54.242;10.280;2023-11-19T03:22:32;100198.41;;;3.95;100.00
62418;BME280;48456;54.242;10.280;2023-11-19T03:25:02;100204.50;;;3.95;100.00
62418;BME280;48456;54.242;10.280;2023-11-19T03:27:28;100204.50;;;3.95;100.00
62418;BME280;48456;54.242;10.280;2023-11-19T03:29:54;100204.53;;;3.97;100.00
62418;BME280;48456;54.242;10.280;2023-11-19T03:32:21;100215.88;;;3.97;100.00
62418;BME280;48456;54.242;10.280;2023-11-19T03:34:47;100217.59;;;3.97;100.00
62418;BME280;48456;54.242;10.280;2023-11-19T03:37:13;100202.81;;;3.99;100.00
62418;BME280;48456;54.242;10.280;2023-11-19T03:39:43;100208.91;;;3.99;100.00
62418;BME280;48456;54.242;10.280;2023-11-19T03:42:10;100209.78;;;3.98;100.00
62418;BME280;48456;54.242;10.280;2023-11-19T03:44:39;100206.28;;;3.99;100.00
62418;BME280;48456;54.242;10.280;2023-11-19T03:47:05;100194.97;;;4.00;100.00
62418;BME280;48456;54.242;10.280;2023-11-19T03:49:32;100190.59;;;3.99;100.00
62418;BME280;48456;54.242;10.280;2023-11-19T03:51:58;100193.22;;;3.99;100.00
62418;BME280;48456;54.242;10.280;2023-11-19T03:54:25;100194.09;;;3.98;100.00
62418;BME280;48456;54.242;10.280;2023-11-19T03:56:53;100191.47;;;3.98;100.00
62418;BME280;48456;54.242;10.280;2023-11-19T03:59:20;100185.38;;;3.99;100.00
62418;BME280;48456;54.242;10.280;2023-11-19T04:01:46;100174.03;;;4.00;100.00
62418;BME280;48456;54.242;10.280;2023-11-19T04:04:13;100179.28;;;4.02;100.00
62418;BME280;48456;54.242;10.280;2023-11-19T04:06:40;100165.34;;;4.01;100.00
62418;BME280;48456;54.242;10.280;2023-11-19T04:09:07;100151.38;;;4.02;100.00
62418;BME280;48456;54.242;10.280;2023-11-19T04:11:33;100153.13;;;4.03;100.00
62418;BME280;48456;54.242;10.280;2023-11-19T04:13:59;100140.03;;;4.03;100.00
62418;BME280;48456;54.242;10.280;2023-11-19T04:16:26;100146.19;;;4.06;100.00
62418;BME280;48456;54.242;10.280;2023-11-19T04:18:54;100138.31;;;4.04;100.00
62418;BME280;48456;54.242;10.280;2023-11-19T04:21:21;100137.44;;;4.05;100.00
62418;BME280;48456;54.242;10.280;2023-11-19T04:23:49;100123.50;;;4.06;100.00
62418;BME280;48456;54.242;10.280;2023-11-19T04:26:15;100128.75;;;4.08;100.00
62418;BME280;48456;54.242;10.280;2023-11-19T04:28:42;100122.66;;;4.07;100.00
62418;BME280;48456;54.242;10.280;2023-11-19T04:31:08;100117.44;;;4.07;100.00
62418;BME280;48456;54.242;10.280;2023-11-19T04:33:35;100113.03;;;4.08;100.00
62418;BME280;48456;54.242;10.280;2023-11-19T04:36:02;100109.56;;;4.09;100.00
62418;BME280;48456;54.242;10.280;2023-11-19T04:38:28;100096.47;;;4.09;100.00
62418;BME280;48456;54.242;10.280;2023-11-19T04:40:55;100101.72;;;4.10;100.00
62418;BME280;48456;54.242;10.280;2023-11-19T04:43:23;100092.16;;;4.11;100.00
62418;BME280;48456;54.242;10.280;2023-11-19T04:45:50;100091.25;;;4.10;100.00
62418;BME280;48456;54.242;10.280;2023-11-19T04:48:16;100086.94;;;4.12;100.00
62418;BME280;48456;54.242;10.280;2023-11-19T04:50:42;100084.31;;;4.12;100.00
62418;BME280;48456;54.242;10.280;2023-11-19T04:53:09;100076.47;;;4.14;100.00
62418;BME280;48456;54.242;10.280;2023-11-19T04:55:36;100072.09;;;4.14;100.00
62418;BME280;48456;54.242;10.280;2023-11-19T04:58:02;100065.16;;;4.16;100.00
62418;BME280;48456;54.242;10.280;2023-11-19T05:00:29;100068.63;;;4.17;100.00
62418;BME280;48456;54.242;10.280;2023-11-19T05:02:56;100050.34;;;4.19;100.00
62418;BME280;48456;54.242;10.280;2023-11-19T05:05:22;100042.50;;;4.20;100.00
62418;BME280;48456;54.242;10.280;2023-11-19T05:07:49;100039.88;;;4.20;100.00
62418;BME280;48456;54.242;10.280;2023-11-19T05:10:15;100035.56;;;4.22;100.00
62418;BME280;48456;54.242;10.280;2023-11-19T05:12:42;100030.31;;;4.24;100.00
62418;BME280;48456;54.242;10.280;2023-11-19T05:15:08;100018.97;;;4.23;100.00
62418;BME280;48456;54.242;10.280;2023-11-19T05:17:35;100012.00;;;4.25;100.00
62418;BME280;48456;54.242;10.280;2023-11-19T05:20:03;100005.91;;;4.26;100.00
62418;BME280;48456;54.242;10.280;2023-11-19T05:22:30;100021.63;;;4.28;100.00
62418;BME280;48456;54.242;10.280;2023-11-19T05:24:56;100028.66;;;4.31;100.00
62418;BME280;48456;54.242;10.280;2023-11-19T05:27:23;100027.81;;;4.35;100.00
62418;BME280;48456;54.242;10.280;2023-11-19T05:29:50;100012.09;;;4.38;100.00
62418;BME280;48456;54.242;10.280;2023-11-19T05:32:16;100007.75;;;4.38;100.00
62418;BME280;48456;54.242;10.280;2023-11-19T05:34:42;100020.88;;;4.41;100.00
62418;BME280;48456;54.242;10.280;2023-11-19T05:37:12;100031.38;;;4.43;100.00
62418;BME280;48456;54.242;10.280;2023-11-19T05:39:38;100022.66;;;4.47;100.00
62418;BME280;48456;54.242;10.280;2023-11-19T05:42:05;100016.59;;;4.50;100.00
62418;BME280;48456;54.242;10.280;2023-11-19T05:44:31;100014.81;;;4.50;100.00
62418;BME280;48456;54.242;10.280;2023-11-19T05:46:59;100024.47;;;4.54;100.00
62418;BME280;48456;54.242;10.280;2023-11-19T05:49:26;100008.78;;;4.58;100.00
62418;BME280;48456;54.242;10.280;2023-11-19T05:51:52;100010.56;;;4.62;100.00
62418;BME280;48456;54.242;10.280;2023-11-19T05:54:21;100005.34;;;4.65;100.00
62418;BME280;48456;54.242;10.280;2023-11-19T05:56:48;99995.75;;;4.68;100.00
62418;BME280;48456;54.242;10.280;2023-11-19T05:59:15;99989.66;;;4.73;100.00
62418;BME280;48456;54.242;10.280;2023-11-19T06:01:43;99989.72;;;4.77;100.00
62418;BME280;48456;54.242;10.280;2023-11-19T06:04:10;99992.34;;;4.80;100.00
62418;BME280;48456;54.242;10.280;2023-11-19T06:06:37;99985.38;;;4.84;100.00
62418;BME280;48456;54.242;10.280;2023-11-19T06:09:03;99983.66;;;4.88;100.00
62418;BME280;48456;54.242;10.280;2023-11-19T06:11:34;99983.69;;;4.92;100.00
62418;BME280;48456;54.242;10.280;2023-11-19T06:14:02;99987.19;;;4.98;100.00
62418;BME280;48456;54.242;10.280;2023-11-19T06:16:31;99977.59;;;5.01;100.00
62418;BME280;48456;54.242;10.280;2023-11-19T06:18:58;99965.38;;;5.06;100.00
62418;BME280;48456;54.242;10.280;2023-11-19T06:21:25;99967.19;;;5.09;100.00
62418;BME280;48456;54.242;10.280;2023-11-19T06:23:51;99965.41;;;5.11;100.00
62418;BME280;48456;54.242;10.280;2023-11-19T06:26:19;99972.41;;;5.14;100.00
62418;BME280;48456;54.242;10.280;2023-11-19T06:28:46;99970.69;;;5.16;100.00
62418;BME280;48456;54.242;10.280;2023-11-19T06:31:12;99962.81;;;5.19;100.00
62418;BME280;48456;54.242;10.280;2023-11-19T06:33:42;99954.13;;;5.20;100.00
62418;BME280;48456;54.242;10.280;2023-11-19T06:36:09;99961.97;;;5.23;100.00
62418;BME280;48456;54.242;10.280;2023-11-19T06:38:35;99954.13;;;5.28;100.00
62418;BME280;48456;54.242;10.280;2023-11-19T06:41:01;99956.78;;;5.31;100.00
62418;BME280;48456;54.242;10.280;2023-11-19T06:43:31;99951.50;;;5.34;100.00
62418;BME280;48456;54.242;10.280;2023-11-19T06:46:02;99959.41;;;5.37;100.00
62418;BME280;48456;54.242;10.280;2023-11-19T06:48:32;99956.78;;;5.40;100.00
62418;BME280;48456;54.242;10.280;2023-11-19T06:50:59;99954.19;;;5.43;100.00
62418;BME280;48456;54.242;10.280;2023-11-19T06:53:25;99952.44;;;5.45;100.00
62418;BME280;48456;54.242;10.280;2023-11-19T06:55:54;99960.34;;;5.50;100.00
62418;BME280;48456;54.242;10.280;2023-11-19T06:58:20;99955.97;;;5.54;100.00
62418;BME280;48456;54.242;10.280;2023-11-19T07:00:47;99947.22;;;5.58;100.00
62418;BME280;48456;54.242;10.280;2023-11-19T07:03:15;99950.72;;;5.60;100.00
62418;BME280;48456;54.242;10.280;2023-11-19T07:05:42;99944.59;;;5.64;100.00
62418;BME280;48456;54.242;10.280;2023-11-19T07:08:10;99949.84;;;5.66;100.00
62418;BME280;48456;54.242;10.280;2023-11-19T07:10:37;99934.13;;;5.69;100.00
62418;BME280;48456;54.242;10.280;2023-11-19T07:13:03;99942.03;;;5.74;100.00
62418;BME280;48456;54.242;10.280;2023-11-19T07:15:32;99935.00;;;5.77;100.00
62418;BME280;48456;54.242;10.280;2023-11-19T07:17:58;99935.03;;;5.82;100.00
62418;BME280;48456;54.242;10.280;2023-11-19T07:20:28;99931.53;;;5.84;100.00
62418;BME280;48456;54.242;10.280;2023-11-19T07:22:54;99910.53;;;5.89;100.00
62418;BME280;48456;54.242;10.280;2023-11-19T07:25:23;99879.03;;;5.94;100.00
62418;BME280;48456;54.242;10.280;2023-11-19T07:27:51;99850.16;;;5.97;100.00
62418;BME280;48456;54.242;10.280;2023-11-19T07:30:18;99814.28;;;5.99;100.00
62418;BME280;48456;54.242;10.280;2023-11-19T07:32:44;99781.88;;;6.02;100.00
62418;BME280;48456;54.242;10.280;2023-11-19T07:35:12;99760.91;;;6.06;100.00
62418;BME280;48456;54.242;10.280;2023-11-19T07:37:38;99741.66;;;6.10;100.00
62418;BME280;48456;54.242;10.280;2023-11-19T07:40:06;99709.25;;;6.15;100.00
62418;BME280;48456;54.242;10.280;2023-11-19T07:42:32;99689.09;;;6.18;100.00
62418;BME280;48456;54.242;10.280;2023-11-19T07:44:59;99670.72;;;6.23;100.00
62418;BME280;48456;54.242;10.280;2023-11-19T07:47:25;99642.66;;;6.25;100.00
62418;BME280;48456;54.242;10.280;2023-11-19T07:49:52;99616.38;;;6.30;100.00
62418;BME280;48456;54.242;10.280;2023-11-19T07:52:18;99598.84;;;6.33;100.00
62418;BME280;48456;54.242;10.280;2023-11-19T07:54:47;99576.09;;;6.37;100.00
62418;BME280;48456;54.242;10.280;2023-11-19T07:57:14;99567.25;;;6.44;100.00
62418;BME280;48456;54.242;10.280;2023-11-19T07:59:41;99542.69;;;6.52;100.00
62418;BME280;48456;54.242;10.280;2023-11-19T08:02:08;99531.25;;;6.57;100.00
62418;BME280;48456;54.242;10.280;2023-11-19T08:04:35;99517.19;;;6.65;100.00
62418;BME280;48456;54.242;10.280;2023-11-19T08:07:02;99502.25;;;6.70;100.00
62418;BME280;48456;54.242;10.280;2023-11-19T08:09:28;99490.81;;;6.74;100.00
62418;BME280;48456;54.242;10.280;2023-11-19T08:11:55;99787.78;;;6.79;100.00
62418;BME280;48456;54.242;10.280;2023-11-19T08:14:22;99775.53;;;6.79;100.00
62418;BME280;48456;54.242;10.280;2023-11-19T08:16:49;99774.63;;;6.83;100.00
62418;BME280;48456;54.242;10.280;2023-11-19T08:19:16;99764.94;;;6.85;100.00
62418;BME280;48456;54.242;10.280;2023-11-19T08:21:42;99772.81;;;6.93;100.00
62418;BME280;48456;54.242;10.280;2023-11-19T08:24:08;99768.38;;;7.01;100.00
62418;BME280;48456;54.242;10.280;2023-11-19T08:26:35;99766.59;;;7.08;100.00
62418;BME280;48456;54.242;10.280;2023-11-19T08:29:01;99765.53;;;7.33;100.00
62418;BME280;48456;54.242;10.280;2023-11-19T08:31:28;99768.88;;;7.55;100.00
62418;BME280;48456;54.242;10.280;2023-11-19T08:33:54;99760.78;;;7.74;100.00
62418;BME280;48456;54.242;10.280;2023-11-19T08:36:20;99758.88;;;7.91;100.00
62418;BME280;48456;54.242;10.280;2023-11-19T08:38:47;99765.69;;;8.13;100.00
62418;BME280;48456;54.242;10.280;2023-11-19T08:41:15;99761.06;;;8.34;100.00
62418;BME280;48456;54.242;10.280;2023-11-19T08:43:44;99760.00;;;8.49;100.00
62418;BME280;48456;54.242;10.280;2023-11-19T08:46:11;99765.13;;;8.63;100.00
62418;BME280;48456;54.242;10.280;2023-11-19T08:48:38;99763.22;;;8.74;100.00
62418;BME280;48456;54.242;10.280;2023-11-19T08:51:04;99765.72;;;8.83;100.00
62418;BME280;48456;54.242;10.280;2023-11-19T08:53:32;99760.25;;;8.97;100.00
62418;BME280;48456;54.242;10.280;2023-11-19T08:55:59;99762.75;;;9.07;100.00
62418;BME280;48456;54.242;10.280;2023-11-19T08:58:26;99774.94;;;9.16;100.00
62418;BME280;48456;54.242;10.280;2023-11-19T09:00:53;99759.91;;;9.21;100.00
62418;BME280;48456;54.242;10.280;2023-11-19T09:03:19;99773.00;;;9.29;100.00
62418;BME280;48456;54.242;10.280;2023-11-19T09:05:46;99772.03;;;9.33;100.00
62418;BME280;48456;54.242;10.280;2023-11-19T09:08:13;99768.44;;;9.37;100.00
62418;BME280;48456;54.242;10.280;2023-11-19T09:10:40;99772.75;;;9.43;100.00
62418;BME280;48456;54.242;10.280;2023-11-19T09:13:06;99763.91;;;9.45;100.00
62418;BME280;48456;54.242;10.280;2023-11-19T09:15:33;99772.66;;;9.51;100.00
62418;BME280;48456;54.242;10.280;2023-11-19T09:17:59;99769.09;;;9.52;100.00
62418;BME280;48456;54.242;10.280;2023-11-19T09:20:26;99764.72;;;9.52;100.00
62418;BME280;48456;54.242;10.280;2023-11-19T09:22:52;99766.44;;;9.55;100.00
62418;BME280;48456;54.242;10.280;2023-11-19T09:25:18;99773.34;;;9.60;100.00
62418;BME280;48456;54.242;10.280;2023-11-19T09:27:45;99768.94;;;9.62;100.00
62418;BME280;48456;54.242;10.280;2023-11-19T09:30:12;99776.78;;;9.67;100.00
62418;BME280;48456;54.242;10.280;2023-11-19T09:32:39;99772.31;;;9.71;100.00
62418;BME280;48456;54.242;10.280;2023-11-19T09:35:06;99767.84;;;9.74;100.00
62418;BME280;48456;54.242;10.280;2023-11-19T09:37:33;99761.59;;;9.79;100.00
62418;BME280;48456;54.242;10.280;2023-11-19T09:39:59;99770.34;;;9.82;100.00
62418;BME280;48456;54.242;10.280;2023-11-19T09:42:26;99772.91;;;9.87;100.00
62418;BME280;48456;54.242;10.280;2023-11-19T09:44:53;99767.53;;;9.93;100.00
62418;BME280;48456;54.242;10.280;2023-11-19T09:47:19;99761.22;;;9.99;100.00
62418;BME280;48456;54.242;10.280;2023-11-19T09:49:47;99754.97;;;10.03;100.00
62418;BME280;48456;54.242;10.280;2023-11-19T09:52:14;99766.47;;;10.00;100.00
62418;BME280;48456;54.242;10.280;2023-11-19T09:54:41;99766.56;;;9.97;100.00
62418;BME280;48456;54.242;10.280;2023-11-19T09:57:07;99755.19;;;9.92;100.00
62418;BME280;48456;54.242;10.280;2023-11-19T09:59:35;99753.47;;;9.90;100.00
62418;BME280;48456;54.242;10.280;2023-11-19T10:02:02;99749.13;;;9.87;100.00
62418;BME280;48456;54.242;10.280;2023-11-19T10:04:29;99747.41;;;9.84;100.00
62418;BME280;48456;54.242;10.280;2023-11-19T10:06:56;99747.47;;;9.81;100.00
62418;BME280;48456;54.242;10.280;2023-11-19T10:09:23;99734.34;;;9.77;100.00
62418;BME280;48456;54.242;10.280;2023-11-19T10:11:49;99721.22;;;9.72;100.00
62418;BME280;48456;54.242;10.280;2023-11-19T10:14:16;99714.19;;;9.72;100.00
62418;BME280;48456;54.242;10.280;2023-11-19T10:16:45;99701.88;;;9.71;100.00
62418;BME280;48456;54.242;10.280;2023-11-19T10:19:18;99707.22;;;9.68;100.00
62418;BME280;48456;54.242;10.280;2023-11-19T10:21:45;99704.56;;;9.68;100.00
62418;BME280;48456;54.242;10.280;2023-11-19T10:24:12;99707.16;;;9.71;100.00
62418;BME280;48456;54.242;10.280;2023-11-19T10:26:56;99734.41;;;9.73;100.00
62418;BME280;48456;54.242;10.280;2023-11-19T10:29:29;99760.88;;;9.69;100.00
62418;BME280;48456;54.242;10.280;2023-11-19T10:31:56;99760.97;;;9.64;100.00
62418;BME280;48456;54.242;10.280;2023-11-19T10:34:26;99774.19;;;9.64;100.00
62418;BME280;48456;54.242;10.280;2023-11-19T10:36:55;99777.72;;;9.63;100.00
62418;BME280;48456;54.242;10.280;2023-11-19T10:39:21;99780.41;;;9.60;100.00
62418;BME280;48456;54.242;10.280;2023-11-19T10:41:49;99785.75;;;9.57;100.00
62418;BME280;48456;54.242;10.280;2023-11-19T10:44:30;99793.69;;;9.55;100.00
62418;BME280;48456;54.242;10.280;2023-11-19T10:46:57;99791.91;;;9.56;100.00
62418;BME280;48456;54.242;10.280;2023-11-19T10:49:23;99787.38;;;9.64;100.00
62418;BME280;48456;54.242;10.280;2023-11-19T10:51:50;99789.97;;;9.67;100.00
62418;BME280;48456;54.242;10.280;2023-11-19T10:54:18;99801.41;;;9.66;100.00
62418;BME280;48456;54.242;10.280;2023-11-19T10:56:45;99798.78;;;9.66;100.00
62418;BME280;48456;54.242;10.280;2023-11-19T10:59:15;99801.34;;;9.71;100.00
62418;BME280;48456;54.242;10.280;2023-11-19T11:01:46;99799.53;;;9.74;100.00
62418;BME280;48456;54.242;10.280;2023-11-19T11:04:14;99794.88;;;9.91;100.00
62418;BME280;48456;54.242;10.280;2023-11-19T11:06:41;99793.66;;;10.07;100.00
62418;BME280;48456;54.242;10.280;2023-11-19T11:09:08;99809.56;;;10.06;100.00
62418;BME280;48456;54.242;10.280;2023-11-19T11:11:41;99813.19;;;10.00;100.00
62418;BME280;48456;54.242;10.280;2023-11-19T11:14:11;99811.47;;;9.97;100.00
62418;BME280;48456;54.242;10.280;2023-11-19T11:16:39;99804.38;;;9.99;100.00
62418;BME280;48456;54.242;10.280;2023-11-19T11:19:08;99798.16;;;10.02;100.00
62418;BME280;48456;54.242;10.280;2023-11-19T11:21:35;99815.84;;;9.98;100.00
62418;BME280;48456;54.242;10.280;2023-11-19T11:31:36;99815.91;;;9.95;100.00
62418;BME280;48456;54.242;10.280;2023-11-19T11:36:48;99822.59;;;10.15;100.00
62418;BME280;48456;54.242;10.280;2023-11-19T11:39:17;99829.66;;;10.14;100.00
62418;BME280;48456;54.242;10.280;2023-11-19T11:41:46;99833.25;;;10.10;100.00
62418;BME280;48456;54.242;10.280;2023-11-19T11:44:13;99830.56;;;10.13;100.00
62418;BME280;48456;54.242;10.280;2023-11-19T11:49:06;99828.81;;;10.12;100.00
62418;BME280;48456;54.242;10.280;2023-11-19T11:54:09;99829.97;;;9.97;100.00
62418;BME280;48456;54.242;10.280;2023-11-19T11:56:39;99825.69;;;9.90;100.00
62418;BME280;48456;54.242;10.280;2023-11-19T11:59:20;99819.59;;;9.86;100.00
62418;BME280;48456;54.242;10.280;2023-11-19T12:01:59;99822.19;;;9.88;100.00
62418;BME280;48456;54.242;10.280;2023-11-19T12:04:29;99823.94;;;9.89;100.00
62418;BME280;48456;54.242;10.280;2023-11-19T12:09:32;99818.50;;;9.98;100.00
62418;BME280;48456;54.242;10.280;2023-11-19T12:20:23;99823.06;;;9.88;100.00
62418;BME280;48456;54.242;10.280;2023-11-19T12:22:53;99825.63;;;9.93;100.00
62418;BME280;48456;54.242;10.280;2023-11-19T12:25:20;99819.44;;;9.94;100.00
62418;BME280;48456;54.242;10.280;2023-11-19T12:27:47;99829.13;;;9.94;100.00
62418;BME280;48456;54.242;10.280;2023-11-19T12:30:23;99821.28;;;9.91;100.00
62418;BME280;48456;54.242;10.280;2023-11-19T12:32:51;99816.94;;;9.86;100.00
62418;BME280;48456;54.242;10.280;2023-11-19T12:35:20;99812.56;;;9.84;100.00
62418;BME280;48456;54.242;10.280;2023-11-19T12:37:47;99812.63;;;9.82;100.00
62418;BME280;48456;54.242;10.280;2023-11-19T12:40:23;99810.84;;;9.83;100.00
62418;BME280;48456;54.242;10.280;2023-11-19T12:42:53;99815.28;;;9.81;100.00
62418;BME280;48456;54.242;10.280;2023-11-19T12:45:20;99809.16;;;9.77;100.00
62418;BME280;48456;54.242;10.280;2023-11-19T12:47:49;99811.00;;;9.73;100.00
62418;BME280;48456;54.242;10.280;2023-11-19T12:50:18;99811.88;;;9.74;100.00
62418;BME280;48456;54.242;10.280;2023-11-19T12:52:57;99803.00;;;9.78;100.00
62418;BME280;48456;54.242;10.280;2023-11-19T12:57:56;99807.47;;;9.73;100.00
62418;BME280;48456;54.242;10.280;2023-11-19T13:00:25;99805.84;;;9.66;100.00
62418;BME280;48456;54.242;10.280;2023-11-19T13:02:52;99799.72;;;9.64;100.00
62418;BME280;48456;54.242;10.280;2023-11-19T13:05:32;99795.38;;;9.59;100.00
62418;BME280;48456;54.242;10.280;2023-11-19T13:08:05;99795.41;;;9.58;100.00
62418;BME280;48456;54.242;10.280;2023-11-19T13:10:33;99791.91;;;9.57;100.00
62418;BME280;48456;54.242;10.280;2023-11-19T13:13:03;99795.38;;;9.59;100.00
62418;BME280;48456;54.242;10.280;2023-11-19T13:15:31;99790.13;;;9.58;100.00